sensor_id;sensor_type;location;lat;lon;timestamp;P1;durP1;ratioP1;P2;durP2;ratioP2
15915;SDS011;8057;47.830;-3.870;2023-07-29T00:02:39;10.43;;;2.90;;
15915;SDS011;8057;47.830;-3.870;2023-07-29T00:06:49;9.67;;;2.80;;
15915;SDS011;8057;47.830;-3.870;2023-07-29T00:10:58;10.00;;;3.43;;
15915;SDS011;8057;47.830;-3.870;2023-07-29T00:15:07;6.40;;;2.87;;
15915;SDS011;8057;47.830;-3.870;2023-07-29T00:19:18;10.87;;;2.63;;
15915;SDS011;8057;47.830;-3.870;2023-07-29T00:23:30;10.70;;;3.20;;
15915;SDS011;8057;47.830;-3.870;2023-07-29T00:27:39;9.00;;;3.10;;
15915;SDS011;8057;47.830;-3.870;2023-07-29T00:31:48;8.97;;;3.13;;
15915;SDS011;8057;47.830;-3.870;2023-07-29T00:35:59;8.20;;;3.13;;
15915;SDS011;8057;47.830;-3.870;2023-07-29T00:40:16;8.40;;;3.60;;
15915;SDS011;8057;47.830;-3.870;2023-07-29T00:44:28;9.47;;;2.90;;
15915;SDS011;8057;47.830;-3.870;2023-07-29T00:48:38;11.33;;;3.00;;
15915;SDS011;8057;47.830;-3.870;2023-07-29T00:52:49;13.13;;;3.27;;
15915;SDS011;8057;47.830;-3.870;2023-07-29T00:56:58;9.20;;;3.10;;
15915;SDS011;8057;47.830;-3.870;2023-07-29T01:01:07;7.37;;;3.47;;
15915;SDS011;8057;47.830;-3.870;2023-07-29T01:05:23;6.80;;;2.70;;
15915;SDS011;8057;47.830;-3.870;2023-07-29T01:09:41;9.10;;;2.67;;
15915;SDS011;8057;47.830;-3.870;2023-07-29T01:14:00;8.93;;;2.80;;
15915;SDS011;8057;47.830;-3.870;2023-07-29T01:18:14;5.00;;;2.63;;
15915;SDS011;8057;47.830;-3.870;2023-07-29T01:22:30;7.30;;;2.87;;
15915;SDS011;8057;47.830;-3.870;2023-07-29T01:26:42;5.27;;;2.53;;
15915;SDS011;8057;47.830;-3.870;2023-07-29T01:30:52;7.20;;;2.57;;
15915;SDS011;8057;47.830;-3.870;2023-07-29T01:35:10;8.17;;;2.67;;
15915;SDS011;8057;47.830;-3.870;2023-07-29T01:39:27;7.67;;;3.17;;
15915;SDS011;8057;47.830;-3.870;2023-07-29T01:43:42;5.73;;;2.83;;
15915;SDS011;8057;47.830;-3.870;2023-07-29T01:52:22;13.00;;;3.50;;
15915;SDS011;8057;47.830;-3.870;2023-07-29T01:56:31;11.47;;;3.43;;
15915;SDS011;8057;47.830;-3.870;2023-07-29T02:00:42;8.47;;;3.23;;
15915;SDS011;8057;47.830;-3.870;2023-07-29T02:04:51;7.93;;;3.27;;
15915;SDS011;8057;47.830;-3.870;2023-07-29T02:09:02;7.83;;;3.33;;
15915;SDS011;8057;47.830;-3.870;2023-07-29T02:13:12;11.40;;;3.73;;
15915;SDS011;8057;47.830;-3.870;2023-07-29T02:17:22;8.03;;;3.37;;
15915;SDS011;8057;47.830;-3.870;2023-07-29T02:21:33;6.97;;;2.60;;
15915;SDS011;8057;47.830;-3.870;2023-07-29T02:25:42;9.70;;;3.03;;
15915;SDS011;8057;47.830;-3.870;2023-07-29T02:29:51;6.20;;;2.90;;
15915;SDS011;8057;47.830;-3.870;2023-07-29T02:34:01;10.27;;;3.43;;
15915;SDS011;8057;47.830;-3.870;2023-07-29T02:38:10;7.90;;;3.23;;
15915;SDS011;8057;47.830;-3.870;2023-07-29T02:42:19;9.80;;;3.43;;
15915;SDS011;8057;47.830;-3.870;2023-07-29T02:46:28;7.60;;;3.23;;
15915;SDS011;8057;47.830;-3.870;2023-07-29T02:50:39;10.63;;;3.10;;
15915;SDS011;8057;47.830;-3.870;2023-07-29T02:54:48;5.87;;;3.00;;
15915;SDS011;8057;47.830;-3.870;2023-07-29T02:58:57;7.90;;;3.47;;
15915;SDS011;8057;47.830;-3.870;2023-07-29T03:03:07;9.00;;;3.23;;
15915;SDS011;8057;47.830;-3.870;2023-07-29T03:07:17;8.83;;;3.33;;
15915;SDS011;8057;47.830;-3.870;2023-07-29T03:11:27;10.30;;;3.63;;
15915;SDS011;8057;47.830;-3.870;2023-07-29T03:15:36;9.90;;;3.17;;
15915;SDS011;8057;47.830;-3.870;2023-07-29T03:19:45;7.07;;;2.60;;
15915;SDS011;8057;47.830;-3.870;2023-07-29T03:23:56;5.17;;;2.57;;
15915;SDS011;8057;47.830;-3.870;2023-07-29T03:28:05;5.40;;;2.73;;
15915;SDS011;8057;47.830;-3.870;2023-07-29T03:32:14;5.30;;;2.73;;
15915;SDS011;8057;47.830;-3.870;2023-07-29T03:36:23;4.87;;;2.90;;
15915;SDS011;8057;47.830;-3.870;2023-07-29T03:40:34;7.10;;;2.30;;
15915;SDS011;8057;47.830;-3.870;2023-07-29T03:44:43;7.77;;;3.07;;
15915;SDS011;8057;47.830;-3.870;2023-07-29T03:48:52;7.80;;;2.90;;
15915;SDS011;8057;47.830;-3.870;2023-07-29T03:53:01;8.00;;;2.77;;
15915;SDS011;8057;47.830;-3.870;2023-07-29T03:57:12;5.47;;;2.10;;
15915;SDS011;8057;47.830;-3.870;2023-07-29T04:01:21;3.90;;;2.03;;
15915;SDS011;8057;47.830;-3.870;2023-07-29T04:05:30;5.27;;;2.33;;
15915;SDS011;8057;47.830;-3.870;2023-07-29T04:09:39;3.90;;;1.80;;
15915;SDS011;8057;47.830;-3.870;2023-07-29T04:13:51;6.27;;;2.30;;
15915;SDS011;8057;47.830;-3.870;2023-07-29T04:18:00;4.77;;;2.10;;
15915;SDS011;8057;47.830;-3.870;2023-07-29T04:22:09;5.00;;;2.20;;
15915;SDS011;8057;47.830;-3.870;2023-07-29T04:26:18;5.43;;;2.30;;
15915;SDS011;8057;47.830;-3.870;2023-07-29T04:30:29;7.30;;;2.20;;
15915;SDS011;8057;47.830;-3.870;2023-07-29T04:34:38;5.63;;;2.70;;
15915;SDS011;8057;47.830;-3.870;2023-07-29T04:38:47;4.70;;;2.53;;
15915;SDS011;8057;47.830;-3.870;2023-07-29T04:42:56;7.13;;;3.20;;
15915;SDS011;8057;47.830;-3.870;2023-07-29T04:47:07;8.63;;;3.57;;
15915;SDS011;8057;47.830;-3.870;2023-07-29T04:51:16;4.63;;;2.93;;
15915;SDS011;8057;47.830;-3.870;2023-07-29T04:55:25;5.20;;;3.17;;
15915;SDS011;8057;47.830;-3.870;2023-07-29T04:59:34;5.30;;;2.87;;
15915;SDS011;8057;47.830;-3.870;2023-07-29T05:03:45;4.43;;;2.87;;
15915;SDS011;8057;47.830;-3.870;2023-07-29T05:07:54;5.37;;;2.60;;
15915;SDS011;8057;47.830;-3.870;2023-07-29T05:12:03;5.90;;;2.93;;
15915;SDS011;8057;47.830;-3.870;2023-07-29T05:16:13;4.33;;;2.90;;
15915;SDS011;8057;47.830;-3.870;2023-07-29T05:20:24;2.97;;;2.37;;
15915;SDS011;8057;47.830;-3.870;2023-07-29T05:24:33;5.80;;;3.07;;
15915;SDS011;8057;47.830;-3.870;2023-07-29T05:28:41;5.40;;;2.70;;
15915;SDS011;8057;47.830;-3.870;2023-07-29T05:32:51;4.73;;;2.80;;
15915;SDS011;8057;47.830;-3.870;2023-07-29T05:37:01;4.83;;;3.10;;
15915;SDS011;8057;47.830;-3.870;2023-07-29T05:41:10;6.00;;;2.53;;
15915;SDS011;8057;47.830;-3.870;2023-07-29T05:45:19;5.27;;;2.73;;
15915;SDS011;8057;47.830;-3.870;2023-07-29T05:49:28;6.47;;;2.90;;
15915;SDS011;8057;47.830;-3.870;2023-07-29T05:53:39;5.07;;;3.00;;
15915;SDS011;8057;47.830;-3.870;2023-07-29T05:57:48;6.27;;;2.83;;
15915;SDS011;8057;47.830;-3.870;2023-07-29T06:01:57;5.27;;;2.77;;
15915;SDS011;8057;47.830;-3.870;2023-07-29T06:06:06;6.27;;;2.70;;
15915;SDS011;8057;47.830;-3.870;2023-07-29T06:10:17;5.33;;;2.70;;
15915;SDS011;8057;47.830;-3.870;2023-07-29T06:14:26;5.47;;;2.87;;
15915;SDS011;8057;47.830;-3.870;2023-07-29T06:18:35;5.87;;;3.07;;
15915;SDS011;8057;47.830;-3.870;2023-07-29T06:22:44;6.23;;;2.53;;
15915;SDS011;8057;47.830;-3.870;2023-07-29T06:26:54;6.70;;;3.17;;
15915;SDS011;8057;47.830;-3.870;2023-07-29T06:31:03;4.67;;;2.90;;
15915;SDS011;8057;47.830;-3.870;2023-07-29T06:35:30;6.73;;;3.17;;
15915;SDS011;8057;47.830;-3.870;2023-07-29T06:39:39;5.13;;;2.77;;
15915;SDS011;8057;47.830;-3.870;2023-07-29T06:43:49;5.17;;;2.80;;
15915;SDS011;8057;47.830;-3.870;2023-07-29T06:47:58;8.07;;;3.03;;
15915;SDS011;8057;47.830;-3.870;2023-07-29T06:52:07;8.63;;;3.30;;
15915;SDS011;8057;47.830;-3.870;2023-07-29T06:56:16;5.47;;;2.87;;
15915;SDS011;8057;47.830;-3.870;2023-07-29T07:00:27;7.63;;;3.27;;
15915;SDS011;8057;47.830;-3.870;2023-07-29T07:04:36;6.40;;;3.43;;
15915;SDS011;8057;47.830;-3.870;2023-07-29T07:08:45;8.13;;;3.40;;
15915;SDS011;8057;47.830;-3.870;2023-07-29T07:12:54;8.67;;;3.60;;
15915;SDS011;8057;47.830;-3.870;2023-07-29T07:17:05;6.33;;;3.13;;
15915;SDS011;8057;47.830;-3.870;2023-07-29T07:21:17;8.33;;;3.43;;
15915;SDS011;8057;47.830;-3.870;2023-07-29T07:25:27;7.43;;;3.47;;
15915;SDS011;8057;47.830;-3.870;2023-07-29T07:29:36;4.50;;;3.07;;
15915;SDS011;8057;47.830;-3.870;2023-07-29T07:33:52;7.60;;;3.70;;
15915;SDS011;8057;47.830;-3.870;2023-07-29T07:38:01;8.53;;;3.87;;
15915;SDS011;8057;47.830;-3.870;2023-07-29T07:42:11;10.90;;;3.80;;
15915;SDS011;8057;47.830;-3.870;2023-07-29T07:46:20;8.00;;;3.63;;
15915;SDS011;8057;47.830;-3.870;2023-07-29T07:50:30;6.70;;;3.60;;
15915;SDS011;8057;47.830;-3.870;2023-07-29T07:54:40;7.97;;;3.73;;
15915;SDS011;8057;47.830;-3.870;2023-07-29T07:58:49;8.97;;;3.87;;
15915;SDS011;8057;47.830;-3.870;2023-07-29T08:02:58;8.73;;;4.47;;
15915;SDS011;8057;47.830;-3.870;2023-07-29T08:07:08;7.90;;;3.77;;
15915;SDS011;8057;47.830;-3.870;2023-07-29T08:11:18;7.23;;;3.87;;
15915;SDS011;8057;47.830;-3.870;2023-07-29T08:15:27;5.27;;;3.23;;
15915;SDS011;8057;47.830;-3.870;2023-07-29T08:19:36;6.43;;;4.03;;
15915;SDS011;8057;47.830;-3.870;2023-07-29T08:23:46;10.97;;;3.93;;
15915;SDS011;8057;47.830;-3.870;2023-07-29T08:27:56;7.90;;;3.57;;
15915;SDS011;8057;47.830;-3.870;2023-07-29T08:32:05;8.90;;;3.87;;
15915;SDS011;8057;47.830;-3.870;2023-07-29T08:36:14;6.30;;;3.80;;
15915;SDS011;8057;47.830;-3.870;2023-07-29T08:40:27;8.97;;;3.63;;
15915;SDS011;8057;47.830;-3.870;2023-07-29T08:44:40;8.03;;;3.90;;
15915;SDS011;8057;47.830;-3.870;2023-07-29T08:48:50;11.33;;;3.73;;
15915;SDS011;8057;47.830;-3.870;2023-07-29T08:53:00;11.40;;;4.10;;
15915;SDS011;8057;47.830;-3.870;2023-07-29T08:57:13;8.93;;;3.80;;
15915;SDS011;8057;47.830;-3.870;2023-07-29T09:01:22;8.23;;;3.60;;
15915;SDS011;8057;47.830;-3.870;2023-07-29T09:05:32;6.63;;;3.43;;
15915;SDS011;8057;47.830;-3.870;2023-07-29T09:09:41;10.60;;;3.77;;
15915;SDS011;8057;47.830;-3.870;2023-07-29T09:13:52;11.20;;;3.53;;
15915;SDS011;8057;47.830;-3.870;2023-07-29T09:18:08;12.30;;;4.00;;
15915;SDS011;8057;47.830;-3.870;2023-07-29T09:22:18;6.93;;;3.00;;
15915;SDS011;8057;47.830;-3.870;2023-07-29T09:26:28;8.73;;;3.37;;
15915;SDS011;8057;47.830;-3.870;2023-07-29T09:30:41;7.93;;;3.07;;
15915;SDS011;8057;47.830;-3.870;2023-07-29T09:34:51;7.17;;;3.20;;
15915;SDS011;8057;47.830;-3.870;2023-07-29T09:39:00;6.37;;;3.53;;
15915;SDS011;8057;47.830;-3.870;2023-07-29T09:43:10;7.33;;;3.07;;
15915;SDS011;8057;47.830;-3.870;2023-07-29T09:47:21;9.17;;;3.47;;
15915;SDS011;8057;47.830;-3.870;2023-07-29T09:51:31;8.20;;;3.40;;
15915;SDS011;8057;47.830;-3.870;2023-07-29T09:55:46;5.77;;;3.03;;
15915;SDS011;8057;47.830;-3.870;2023-07-29T09:59:57;6.83;;;3.17;;
15915;SDS011;8057;47.830;-3.870;2023-07-29T10:04:07;7.03;;;3.67;;
15915;SDS011;8057;47.830;-3.870;2023-07-29T10:08:19;7.87;;;3.17;;
15915;SDS011;8057;47.830;-3.870;2023-07-29T10:12:30;7.50;;;3.37;;
15915;SDS011;8057;47.830;-3.870;2023-07-29T10:16:40;9.23;;;3.43;;
15915;SDS011;8057;47.830;-3.870;2023-07-29T10:20:53;11.03;;;3.40;;
15915;SDS011;8057;47.830;-3.870;2023-07-29T10:25:05;8.43;;;3.43;;
15915;SDS011;8057;47.830;-3.870;2023-07-29T10:29:17;6.03;;;2.60;;
15915;SDS011;8057;47.830;-3.870;2023-07-29T10:33:28;6.20;;;2.90;;
15915;SDS011;8057;47.830;-3.870;2023-07-29T10:37:41;6.33;;;2.83;;
15915;SDS011;8057;47.830;-3.870;2023-07-29T10:41:55;6.17;;;2.77;;
15915;SDS011;8057;47.830;-3.870;2023-07-29T10:46:15;6.83;;;3.07;;
15915;SDS011;8057;47.830;-3.870;2023-07-29T10:50:25;8.13;;;2.63;;
15915;SDS011;8057;47.830;-3.870;2023-07-29T10:54:43;6.10;;;2.63;;
15915;SDS011;8057;47.830;-3.870;2023-07-29T10:58:54;6.40;;;2.63;;
15915;SDS011;8057;47.830;-3.870;2023-07-29T11:03:05;8.27;;;2.97;;
15915;SDS011;8057;47.830;-3.870;2023-07-29T11:07:19;6.37;;;3.17;;
15915;SDS011;8057;47.830;-3.870;2023-07-29T11:11:34;31.63;;;10.00;;
15915;SDS011;8057;47.830;-3.870;2023-07-29T11:15:48;7.63;;;3.53;;
15915;SDS011;8057;47.830;-3.870;2023-07-29T11:19:59;7.40;;;3.07;;
15915;SDS011;8057;47.830;-3.870;2023-07-29T11:24:09;8.27;;;3.10;;
15915;SDS011;8057;47.830;-3.870;2023-07-29T11:28:20;4.07;;;2.47;;
15915;SDS011;8057;47.830;-3.870;2023-07-29T11:32:30;8.10;;;2.67;;
15915;SDS011;8057;47.830;-3.870;2023-07-29T11:36:39;5.40;;;2.47;;
15915;SDS011;8057;47.830;-3.870;2023-07-29T11:40:54;6.27;;;2.87;;
15915;SDS011;8057;47.830;-3.870;2023-07-29T11:45:06;5.73;;;2.83;;
15915;SDS011;8057;47.830;-3.870;2023-07-29T11:49:16;7.60;;;2.83;;
15915;SDS011;8057;47.830;-3.870;2023-07-29T11:53:27;5.23;;;2.80;;
15915;SDS011;8057;47.830;-3.870;2023-07-29T11:57:38;4.63;;;2.10;;
15915;SDS011;8057;47.830;-3.870;2023-07-29T12:01:49;6.00;;;2.37;;
15915;SDS011;8057;47.830;-3.870;2023-07-29T12:05:59;4.40;;;2.00;;
15915;SDS011;8057;47.830;-3.870;2023-07-29T12:10:09;3.67;;;1.87;;
15915;SDS011;8057;47.830;-3.870;2023-07-29T12:14:19;2.40;;;1.90;;
15915;SDS011;8057;47.830;-3.870;2023-07-29T12:18:32;3.13;;;1.53;;
15915;SDS011;8057;47.830;-3.870;2023-07-29T12:22:41;2.13;;;1.07;;
15915;SDS011;8057;47.830;-3.870;2023-07-29T12:26:52;1.87;;;1.30;;
15915;SDS011;8057;47.830;-3.870;2023-07-29T12:31:01;2.07;;;1.13;;
15915;SDS011;8057;47.830;-3.870;2023-07-29T12:35:16;0.70;;;0.60;;
15915;SDS011;8057;47.830;-3.870;2023-07-29T12:39:26;0.70;;;0.50;;
15915;SDS011;8057;47.830;-3.870;2023-07-29T12:43:36;0.67;;;0.47;;
15915;SDS011;8057;47.830;-3.870;2023-07-29T12:47:44;1.43;;;0.80;;
15915;SDS011;8057;47.830;-3.870;2023-07-29T12:51:55;1.83;;;0.90;;
15915;SDS011;8057;47.830;-3.870;2023-07-29T12:56:05;3.47;;;1.30;;
15915;SDS011;8057;47.830;-3.870;2023-07-29T13:00:14;2.23;;;1.30;;
15915;SDS011;8057;47.830;-3.870;2023-07-29T13:04:24;2.70;;;1.90;;
15915;SDS011;8057;47.830;-3.870;2023-07-29T13:08:35;1.73;;;1.50;;
15915;SDS011;8057;47.830;-3.870;2023-07-29T13:12:44;3.30;;;1.70;;
15915;SDS011;8057;47.830;-3.870;2023-07-29T13:16:53;2.53;;;1.70;;
15915;SDS011;8057;47.830;-3.870;2023-07-29T13:21:02;4.27;;;1.87;;
15915;SDS011;8057;47.830;-3.870;2023-07-29T13:25:19;2.37;;;1.67;;
15915;SDS011;8057;47.830;-3.870;2023-07-29T13:29:29;2.83;;;1.60;;
15915;SDS011;8057;47.830;-3.870;2023-07-29T13:33:38;3.37;;;2.27;;
15915;SDS011;8057;47.830;-3.870;2023-07-29T13:37:47;3.23;;;2.23;;
15915;SDS011;8057;47.830;-3.870;2023-07-29T13:41:57;3.37;;;2.33;;
15915;SDS011;8057;47.830;-3.870;2023-07-29T13:46:06;3.07;;;2.20;;
15915;SDS011;8057;47.830;-3.870;2023-07-29T13:50:16;3.53;;;1.93;;
15915;SDS011;8057;47.830;-3.870;2023-07-29T13:54:25;3.23;;;2.00;;
15915;SDS011;8057;47.830;-3.870;2023-07-29T13:58:37;2.67;;;1.80;;
15915;SDS011;8057;47.830;-3.870;2023-07-29T14:02:45;5.57;;;2.60;;
15915;SDS011;8057;47.830;-3.870;2023-07-29T14:06:54;4.00;;;2.10;;
15915;SDS011;8057;47.830;-3.870;2023-07-29T14:11:05;2.80;;;1.93;;
15915;SDS011;8057;47.830;-3.870;2023-07-29T14:15:16;4.53;;;2.33;;
15915;SDS011;8057;47.830;-3.870;2023-07-29T14:19:25;6.40;;;2.73;;
15915;SDS011;8057;47.830;-3.870;2023-07-29T14:23:34;6.17;;;2.77;;
15915;SDS011;8057;47.830;-3.870;2023-07-29T14:27:43;7.27;;;3.10;;
15915;SDS011;8057;47.830;-3.870;2023-07-29T14:31:53;14.33;;;9.40;;
15915;SDS011;8057;47.830;-3.870;2023-07-29T14:36:02;6.67;;;5.87;;
15915;SDS011;8057;47.830;-3.870;2023-07-29T14:40:14;8.77;;;5.87;;
15915;SDS011;8057;47.830;-3.870;2023-07-29T14:44:23;10.57;;;4.17;;
15915;SDS011;8057;47.830;-3.870;2023-07-29T14:48:33;8.23;;;3.80;;
15915;SDS011;8057;47.830;-3.870;2023-07-29T14:52:42;10.37;;;3.73;;
15915;SDS011;8057;47.830;-3.870;2023-07-29T14:56:51;7.93;;;3.43;;
15915;SDS011;8057;47.830;-3.870;2023-07-29T15:01:01;9.30;;;2.73;;
15915;SDS011;8057;47.830;-3.870;2023-07-29T15:05:11;10.43;;;3.00;;
15915;SDS011;8057;47.830;-3.870;2023-07-29T15:09:21;5.93;;;2.67;;
15915;SDS011;8057;47.830;-3.870;2023-07-29T15:13:31;7.53;;;2.47;;
15915;SDS011;8057;47.830;-3.870;2023-07-29T15:17:40;9.23;;;2.70;;
15915;SDS011;8057;47.830;-3.870;2023-07-29T15:21:51;8.40;;;3.53;;
15915;SDS011;8057;47.830;-3.870;2023-07-29T15:26:05;7.20;;;2.07;;
15915;SDS011;8057;47.830;-3.870;2023-07-29T15:30:16;9.37;;;4.20;;
15915;SDS011;8057;47.830;-3.870;2023-07-29T15:34:27;10.37;;;3.70;;
15915;SDS011;8057;47.830;-3.870;2023-07-29T15:38:40;10.43;;;3.53;;
15915;SDS011;8057;47.830;-3.870;2023-07-29T15:42:49;10.90;;;3.40;;
15915;SDS011;8057;47.830;-3.870;2023-07-29T15:46:58;12.30;;;6.90;;
15915;SDS011;8057;47.830;-3.870;2023-07-29T15:51:07;11.53;;;3.30;;
15915;SDS011;8057;47.830;-3.870;2023-07-29T15:55:17;11.23;;;5.10;;
15915;SDS011;8057;47.830;-3.870;2023-07-29T15:59:26;12.77;;;7.23;;
15915;SDS011;8057;47.830;-3.870;2023-07-29T16:03:35;10.97;;;6.10;;
15915;SDS011;8057;47.830;-3.870;2023-07-29T16:07:48;7.83;;;3.53;;
15915;SDS011;8057;47.830;-3.870;2023-07-29T16:12:01;7.20;;;2.87;;
15915;SDS011;8057;47.830;-3.870;2023-07-29T16:16:23;7.13;;;4.50;;
15915;SDS011;8057;47.830;-3.870;2023-07-29T16:20:39;7.23;;;3.47;;
15915;SDS011;8057;47.830;-3.870;2023-07-29T16:24:48;6.83;;;2.90;;
15915;SDS011;8057;47.830;-3.870;2023-07-29T16:28:59;3.83;;;2.10;;
15915;SDS011;8057;47.830;-3.870;2023-07-29T16:33:11;4.03;;;2.30;;
15915;SDS011;8057;47.830;-3.870;2023-07-29T16:37:20;5.03;;;1.93;;
15915;SDS011;8057;47.830;-3.870;2023-07-29T16:41:29;4.87;;;1.60;;
15915;SDS011;8057;47.830;-3.870;2023-07-29T16:46:00;2.53;;;1.43;;
15915;SDS011;8057;47.830;-3.870;2023-07-29T16:50:09;4.43;;;1.43;;
15915;SDS011;8057;47.830;-3.870;2023-07-29T16:54:18;4.33;;;2.10;;
15915;SDS011;8057;47.830;-3.870;2023-07-29T16:58:27;6.60;;;1.77;;
15915;SDS011;8057;47.830;-3.870;2023-07-29T17:02:38;6.30;;;1.63;;
15915;SDS011;8057;47.830;-3.870;2023-07-29T17:06:47;4.03;;;1.87;;
15915;SDS011;8057;47.830;-3.870;2023-07-29T17:10:57;3.63;;;1.33;;
15915;SDS011;8057;47.830;-3.870;2023-07-29T17:15:06;4.60;;;2.27;;
15915;SDS011;8057;47.830;-3.870;2023-07-29T17:19:18;3.80;;;2.10;;
15915;SDS011;8057;47.830;-3.870;2023-07-29T17:23:27;7.00;;;1.90;;
15915;SDS011;8057;47.830;-3.870;2023-07-29T17:27:38;4.93;;;1.73;;
15915;SDS011;8057;47.830;-3.870;2023-07-29T17:31:47;4.13;;;1.63;;
15915;SDS011;8057;47.830;-3.870;2023-07-29T17:35:57;7.47;;;2.10;;
15915;SDS011;8057;47.830;-3.870;2023-07-29T17:40:07;6.20;;;1.70;;
15915;SDS011;8057;47.830;-3.870;2023-07-29T17:44:17;5.47;;;1.80;;
15915;SDS011;8057;47.830;-3.870;2023-07-29T17:48:26;6.30;;;1.90;;
15915;SDS011;8057;47.830;-3.870;2023-07-29T17:52:37;6.13;;;2.00;;
15915;SDS011;8057;47.830;-3.870;2023-07-29T17:56:46;4.33;;;1.60;;
15915;SDS011;8057;47.830;-3.870;2023-07-29T18:00:56;5.33;;;1.73;;
15915;SDS011;8057;47.830;-3.870;2023-07-29T18:05:05;4.73;;;1.80;;
15915;SDS011;8057;47.830;-3.870;2023-07-29T18:09:16;7.47;;;2.20;;
15915;SDS011;8057;47.830;-3.870;2023-07-29T18:13:26;5.13;;;1.87;;
15915;SDS011;8057;47.830;-3.870;2023-07-29T18:17:35;5.27;;;2.17;;
15915;SDS011;8057;47.830;-3.870;2023-07-29T18:21:44;7.37;;;1.93;;
15915;SDS011;8057;47.830;-3.870;2023-07-29T18:25:55;4.27;;;1.83;;
15915;SDS011;8057;47.830;-3.870;2023-07-29T18:30:05;5.90;;;2.10;;
15915;SDS011;8057;47.830;-3.870;2023-07-29T18:34:15;7.40;;;2.37;;
15915;SDS011;8057;47.830;-3.870;2023-07-29T18:38:25;7.73;;;2.87;;
15915;SDS011;8057;47.830;-3.870;2023-07-29T18:42:36;5.73;;;2.07;;
15915;SDS011;8057;47.830;-3.870;2023-07-29T18:46:45;7.73;;;2.10;;
15915;SDS011;8057;47.830;-3.870;2023-07-29T18:50:59;9.90;;;2.10;;
15915;SDS011;8057;47.830;-3.870;2023-07-29T18:55:09;5.77;;;2.30;;
15915;SDS011;8057;47.830;-3.870;2023-07-29T18:59:19;7.60;;;2.40;;
15915;SDS011;8057;47.830;-3.870;2023-07-29T19:03:30;8.33;;;2.43;;
15915;SDS011;8057;47.830;-3.870;2023-07-29T19:07:39;5.13;;;2.10;;
15915;SDS011;8057;47.830;-3.870;2023-07-29T19:11:48;5.67;;;1.90;;
15915;SDS011;8057;47.830;-3.870;2023-07-29T19:15:59;7.40;;;2.33;;
15915;SDS011;8057;47.830;-3.870;2023-07-29T19:20:13;5.90;;;2.03;;
15915;SDS011;8057;47.830;-3.870;2023-07-29T19:24:22;5.20;;;2.00;;
15915;SDS011;8057;47.830;-3.870;2023-07-29T19:28:31;8.23;;;2.20;;
15915;SDS011;8057;47.830;-3.870;2023-07-29T19:32:42;6.50;;;2.20;;
15915;SDS011;8057;47.830;-3.870;2023-07-29T19:36:51;7.60;;;2.03;;
15915;SDS011;8057;47.830;-3.870;2023-07-29T19:41:00;5.03;;;2.13;;
15915;SDS011;8057;47.830;-3.870;2023-07-29T19:45:09;8.10;;;2.40;;
15915;SDS011;8057;47.830;-3.870;2023-07-29T19:49:20;6.93;;;2.43;;
15915;SDS011;8057;47.830;-3.870;2023-07-29T19:53:29;6.27;;;2.10;;
15915;SDS011;8057;47.830;-3.870;2023-07-29T19:57:38;5.13;;;1.93;;
15915;SDS011;8057;47.830;-3.870;2023-07-29T20:01:47;6.63;;;2.37;;
15915;SDS011;8057;47.830;-3.870;2023-07-29T20:05:58;5.37;;;2.27;;
15915;SDS011;8057;47.830;-3.870;2023-07-29T20:10:07;7.40;;;2.50;;
15915;SDS011;8057;47.830;-3.870;2023-07-29T20:14:16;6.10;;;2.70;;
15915;SDS011;8057;47.830;-3.870;2023-07-29T20:18:25;10.30;;;2.97;;
15915;SDS011;8057;47.830;-3.870;2023-07-29T20:22:36;6.87;;;2.50;;
15915;SDS011;8057;47.830;-3.870;2023-07-29T20:26:45;7.97;;;2.60;;
15915;SDS011;8057;47.830;-3.870;2023-07-29T20:30:54;9.27;;;2.80;;
15915;SDS011;8057;47.830;-3.870;2023-07-29T20:35:04;9.90;;;2.60;;
15915;SDS011;8057;47.830;-3.870;2023-07-29T20:39:15;9.90;;;2.73;;
15915;SDS011;8057;47.830;-3.870;2023-07-29T20:43:24;7.83;;;2.67;;
15915;SDS011;8057;47.830;-3.870;2023-07-29T20:48:03;9.23;;;3.33;;
15915;SDS011;8057;47.830;-3.870;2023-07-29T20:52:12;8.23;;;2.77;;
15915;SDS011;8057;47.830;-3.870;2023-07-29T20:56:22;8.17;;;2.83;;
15915;SDS011;8057;47.830;-3.870;2023-07-29T21:00:31;8.40;;;3.00;;
15915;SDS011;8057;47.830;-3.870;2023-07-29T21:04:41;7.50;;;3.00;;
15915;SDS011;8057;47.830;-3.870;2023-07-29T21:08:50;8.97;;;2.90;;
15915;SDS011;8057;47.830;-3.870;2023-07-29T21:13:00;6.97;;;2.80;;
15915;SDS011;8057;47.830;-3.870;2023-07-29T21:17:09;9.37;;;3.43;;
15915;SDS011;8057;47.830;-3.870;2023-07-29T21:21:18;12.80;;;3.70;;
15915;SDS011;8057;47.830;-3.870;2023-07-29T21:25:45;7.63;;;3.10;;
15915;SDS011;8057;47.830;-3.870;2023-07-29T21:29:57;8.20;;;2.63;;
15915;SDS011;8057;47.830;-3.870;2023-07-29T21:34:37;8.27;;;2.73;;
15915;SDS011;8057;47.830;-3.870;2023-07-29T21:38:52;7.47;;;2.63;;
15915;SDS011;8057;47.830;-3.870;2023-07-29T21:43:13;7.07;;;2.53;;
15915;SDS011;8057;47.830;-3.870;2023-07-29T21:47:29;8.10;;;2.90;;
15915;SDS011;8057;47.830;-3.870;2023-07-29T21:51:39;5.27;;;2.50;;
15915;SDS011;8057;47.830;-3.870;2023-07-29T21:55:48;7.57;;;2.33;;
15915;SDS011;8057;47.830;-3.870;2023-07-29T22:00:02;7.87;;;2.80;;
15915;SDS011;8057;47.830;-3.870;2023-07-29T22:04:25;8.30;;;2.73;;
15915;SDS011;8057;47.830;-3.870;2023-07-29T22:08:55;5.47;;;2.60;;
15915;SDS011;8057;47.830;-3.870;2023-07-29T22:13:13;11.57;;;3.07;;
15915;SDS011;8057;47.830;-3.870;2023-07-29T22:17:28;11.13;;;2.80;;
15915;SDS011;8057;47.830;-3.870;2023-07-29T22:21:42;8.60;;;2.93;;
15915;SDS011;8057;47.830;-3.870;2023-07-29T22:30:19;9.30;;;2.97;;
15915;SDS011;8057;47.830;-3.870;2023-07-29T22:34:37;11.70;;;3.07;;
15915;SDS011;8057;47.830;-3.870;2023-07-29T22:39:01;10.00;;;3.40;;
15915;SDS011;8057;47.830;-3.870;2023-07-29T22:43:11;9.73;;;2.97;;
15915;SDS011;8057;47.830;-3.870;2023-07-29T22:47:23;6.50;;;2.87;;
15915;SDS011;8057;47.830;-3.870;2023-07-29T22:51:32;10.83;;;3.23;;
15915;SDS011;8057;47.830;-3.870;2023-07-29T22:55:49;9.77;;;3.10;;
15915;SDS011;8057;47.830;-3.870;2023-07-29T22:59:58;12.57;;;3.70;;
15915;SDS011;8057;47.830;-3.870;2023-07-29T23:04:11;8.30;;;3.27;;
15915;SDS011;8057;47.830;-3.870;2023-07-29T23:08:23;7.90;;;2.90;;
15915;SDS011;8057;47.830;-3.870;2023-07-29T23:12:33;8.40;;;3.83;;
15915;SDS011;8057;47.830;-3.870;2023-07-29T23:16:42;14.60;;;3.67;;
15915;SDS011;8057;47.830;-3.870;2023-07-29T23:20:51;10.50;;;3.00;;
15915;SDS011;8057;47.830;-3.870;2023-07-29T23:25:00;12.10;;;3.47;;
15915;SDS011;8057;47.830;-3.870;2023-07-29T23:29:11;11.63;;;3.87;;
15915;SDS011;8057;47.830;-3.870;2023-07-29T23:33:20;12.23;;;3.40;;
15915;SDS011;8057;47.830;-3.870;2023-07-29T23:37:31;7.03;;;2.63;;
15915;SDS011;8057;47.830;-3.870;2023-07-29T23:41:39;7.03;;;2.97;;
15915;SDS011;8057;47.830;-3.870;2023-07-29T23:45:50;8.27;;;3.03;;
15915;SDS011;8057;47.830;-3.870;2023-07-29T23:49:59;10.57;;;3.60;;
15915;SDS011;8057;47.830;-3.870;2023-07-29T23:54:08;9.77;;;3.50;;
15915;SDS011;8057;47.830;-3.870;2023-07-29T23:58:17;10.90;;;3.23;;
